This is the latest recevied weather packets stored in our database for station/object IU5GBO-13. If no packets are shown the sender has not sent any weather packets the latest 10 day(s).
| Time | Temp. | Humidity | Pressure | Rain* | Wind** | Luminosity | Snow |
|---|---|---|---|---|---|---|---|
| 1777193852 | 20.56° C | 51% | 1020.4 hPa | - | - | - | - |
| 1777193251 | 20.56° C | 52% | 1020.5 hPa | - | - | - | - |
| 1777192652 | 21.11° C | 50% | 1020.4 hPa | - | - | - | - |
| 1777192052 | 20.56° C | 49% | 1020.2 hPa | - | - | - | - |
| 1777191451 | 20.56° C | 47% | 1020.2 hPa | - | - | - | - |
| 1777190851 | 20.56° C | 46% | 1020.1 hPa | - | - | - | - |
| 1777190251 | 19.44° C | 49% | 1020.2 hPa | - | - | - | - |
| 1777189652 | 19.44° C | 48% | 1020 hPa | - | - | - | - |
| 1777189051 | 18.89° C | 51% | 1020 hPa | - | - | - | - |
| 1777188451 | 18.89° C | 51% | 1020.1 hPa | - | - | - | - |
| 1777187851 | 17.22° C | 52% | 1020.1 hPa | - | - | - | - |
| 1777187251 | 17.78° C | 54% | 1020 hPa | - | - | - | - |
| 1777186652 | 17.22° C | 52% | 1020.1 hPa | - | - | - | - |
| 1777186051 | 16.11° C | 53% | 1020.2 hPa | - | - | - | - |
| 1777185451 | 15.56° C | 57% | 1020.1 hPa | - | - | - | - |
| 1777184851 | 13.33° C | 59% | 1020.1 hPa | - | - | - | - |
| 1777184251 | 12.78° C | 61% | 1020 hPa | - | - | - | - |
| 1777183651 | 11.67° C | 66% | 1019.9 hPa | - | - | - | - |
| 1777183051 | 10° C | 69% | 1019.9 hPa | - | - | - | - |
| 1777182451 | 8.89° C | 71% | 1019.8 hPa | - | - | - | - |
| 1777181851 | 8.33° C | 72% | 1019.8 hPa | - | - | - | - |
| 1777181251 | 7.78° C | 73% | 1019.8 hPa | - | - | - | - |
| 1777180651 | 7.22° C | 74% | 1019.6 hPa | - | - | - | - |
| 1777180051 | 6.67° C | 74% | 1019.6 hPa | - | - | - | - |
| 1777179451 | 7.22° C | 73% | 1019.5 hPa | - | - | - | - |
* Rain since midnight (hover to see other rain measurements)
** Current wind speed in m/s (hover to see current wind gust speed)